createdAt,value
2018-04-26T03:12:31.998Z,959.36
2018-04-26T03:13:31.802Z,959.37
2018-04-26T03:15:26.309Z,959.39
2018-04-26T03:16:26.138Z,959.39
2018-04-26T03:18:20.750Z,959.43
2018-04-26T03:19:20.508Z,959.37
2018-04-26T03:21:15.056Z,959.50
2018-04-26T03:22:14.837Z,959.46
2018-04-26T03:24:09.344Z,959.46
2018-04-26T03:25:09.173Z,959.48
2018-04-26T03:27:03.594Z,959.51
2018-04-26T03:28:03.528Z,959.49
2018-04-26T03:29:57.921Z,959.47
2018-04-26T03:30:58.012Z,959.56
2018-04-26T03:32:52.261Z,959.53
2018-04-26T03:33:52.264Z,959.57
2018-04-26T03:35:46.648Z,959.53
2018-04-26T03:36:46.636Z,959.56
2018-04-26T03:38:41.022Z,959.56
2018-04-26T03:39:41.007Z,959.54
2018-04-26T03:41:35.354Z,959.50
2018-04-26T03:42:35.348Z,959.49
2018-04-26T03:44:29.841Z,959.48
2018-04-26T03:45:29.739Z,959.52
2018-04-26T03:47:24.266Z,959.47
2018-04-26T03:48:24.082Z,959.47
2018-04-26T03:50:18.485Z,959.43
2018-04-26T03:51:18.443Z,959.47
2018-04-26T03:53:13.076Z,959.50
2018-04-26T03:54:13.002Z,959.46
2018-04-26T03:56:07.351Z,959.52
2018-04-26T03:57:07.333Z,959.52
2018-04-26T03:58:07.351Z,959.55
2018-04-26T03:59:07.325Z,959.48
2018-04-26T04:00:07.330Z,959.54
2018-04-26T04:01:07.318Z,959.53
2018-04-26T04:02:07.325Z,959.52
2018-04-26T04:03:07.315Z,959.57
2018-04-26T04:04:07.335Z,959.61
2018-04-26T04:05:07.333Z,959.59
2018-04-26T04:06:07.323Z,959.57
2018-04-26T04:07:07.303Z,959.55
2018-04-26T04:08:07.301Z,959.52
2018-04-26T04:09:07.300Z,959.53
2018-04-26T04:10:07.296Z,959.59
2018-04-26T04:11:07.293Z,959.51
2018-04-26T04:12:07.292Z,959.53
2018-04-26T04:13:07.288Z,959.52
2018-04-26T04:14:07.287Z,959.49
2018-04-26T04:15:07.286Z,959.52
2018-04-26T04:16:07.279Z,959.42
2018-04-26T04:17:07.277Z,959.47
2018-04-26T04:18:07.275Z,959.47
2018-04-26T04:19:07.277Z,959.50
2018-04-26T04:20:07.273Z,959.50
2018-04-26T04:21:07.266Z,959.52
2018-04-26T04:22:07.264Z,959.54
2018-04-26T04:23:07.261Z,959.54
2018-04-26T04:24:07.259Z,959.53
2018-04-26T04:25:07.265Z,959.60
2018-04-26T04:26:07.258Z,959.62
2018-04-26T04:27:07.250Z,959.65
2018-04-26T04:28:07.248Z,959.61
2018-04-26T04:29:07.263Z,959.61
2018-04-26T04:30:07.243Z,959.58
2018-04-26T04:31:07.250Z,959.63
2018-04-26T04:32:07.236Z,959.57
2018-04-26T04:33:07.233Z,959.57
2018-04-26T04:34:07.231Z,959.55
2018-04-26T04:35:07.229Z,959.52
2018-04-26T04:36:07.845Z,959.49
2018-04-26T04:37:07.224Z,959.52
2018-04-26T04:38:07.226Z,959.51
2018-04-26T04:39:07.220Z,959.55
2018-04-26T04:40:07.216Z,959.54
2018-04-26T04:41:07.213Z,959.54
2018-04-26T04:42:07.218Z,959.53
2018-04-26T04:43:07.224Z,959.59
2018-04-26T04:44:07.214Z,959.60
2018-04-26T04:45:07.205Z,959.63
2018-04-26T04:46:07.200Z,959.62
2018-04-26T04:47:07.197Z,959.65
2018-04-26T04:48:07.196Z,959.62
2018-04-26T04:49:07.193Z,959.63
2018-04-26T04:50:07.189Z,959.69
2018-04-26T04:51:07.187Z,959.78
2018-04-26T04:52:07.208Z,959.78
2018-04-26T04:53:07.181Z,959.82
2018-04-26T04:54:07.188Z,959.83
2018-04-26T04:55:07.177Z,959.85
2018-04-26T04:56:07.178Z,959.75
2018-04-26T04:57:07.181Z,959.81
2018-04-26T04:58:07.167Z,959.79
2018-04-26T04:59:07.170Z,959.78
2018-04-26T05:00:07.179Z,959.82
2018-04-26T05:01:07.168Z,959.78
2018-04-26T05:02:07.271Z,959.81
2018-04-26T05:03:07.154Z,959.80
2018-04-26T05:04:07.153Z,959.83
2018-04-26T05:05:07.151Z,959.84
2018-04-26T05:06:07.154Z,959.87
2018-04-26T05:07:07.149Z,959.94
2018-04-26T05:08:07.144Z,959.89
2018-04-26T05:09:07.144Z,959.95
2018-04-26T05:10:07.138Z,959.97
2018-04-26T05:11:07.166Z,959.91
2018-04-26T05:12:07.158Z,959.96
2018-04-26T05:13:07.142Z,959.95
2018-04-26T05:14:07.129Z,960.02
2018-04-26T05:15:07.129Z,960.03
2018-04-26T05:16:07.126Z,960.02
2018-04-26T05:17:07.122Z,959.99
2018-04-26T05:18:07.849Z,960.04
2018-04-26T05:19:07.115Z,960.01
2018-04-26T05:20:07.115Z,960.10
2018-04-26T05:21:07.124Z,960.11
2018-04-26T05:22:07.108Z,960.12
2018-04-26T05:23:07.126Z,960.10
2018-04-26T05:24:07.105Z,960.06
2018-04-26T05:25:07.123Z,960.13
2018-04-26T05:26:07.103Z,960.06
2018-04-26T05:27:07.105Z,960.14
2018-04-26T05:28:07.093Z,960.16
2018-04-26T05:29:07.093Z,960.13
2018-04-26T05:30:07.135Z,960.22
2018-04-26T05:31:07.098Z,960.20
2018-04-26T05:32:07.094Z,960.19
2018-04-26T05:33:07.107Z,960.13
2018-04-26T05:34:07.079Z,960.10
2018-04-26T05:35:07.077Z,960.05
2018-04-26T05:36:07.076Z,960.05
2018-04-26T05:37:07.092Z,960.11
2018-04-26T05:38:07.083Z,960.09
2018-04-26T05:39:07.070Z,960.15
2018-04-26T05:40:07.064Z,960.12
2018-04-26T05:41:07.079Z,960.15
2018-04-26T05:42:07.851Z,960.12
2018-04-26T05:43:07.066Z,960.18
2018-04-26T05:44:07.056Z,960.10
2018-04-26T05:45:07.061Z,960.09
2018-04-26T05:46:07.053Z,960.18
2018-04-26T05:47:07.053Z,960.17
2018-04-26T05:48:07.064Z,960.19
2018-04-26T05:49:07.041Z,960.18
2018-04-26T05:50:07.037Z,960.16
2018-04-26T05:51:07.037Z,960.16
2018-04-26T05:52:07.065Z,960.18
2018-04-26T05:53:07.045Z,960.16
2018-04-26T05:54:07.053Z,960.21
2018-04-26T05:55:07.040Z,960.17
2018-04-26T05:56:07.069Z,960.25
2018-04-26T05:57:07.064Z,960.17
2018-04-26T05:58:07.021Z,960.18
2018-04-26T05:59:07.021Z,960.22
2018-04-26T06:00:07.020Z,960.09
2018-04-26T06:01:07.017Z,960.28
2018-04-26T06:02:07.016Z,960.31
2018-04-26T06:03:07.014Z,960.18
2018-04-26T06:04:07.008Z,960.18
2018-04-26T06:05:07.026Z,960.23
2018-04-26T06:06:07.006Z,960.22
2018-04-26T06:07:07.002Z,960.25
2018-04-26T06:08:07.011Z,960.28
2018-04-26T06:09:07.013Z,960.25
2018-04-26T06:10:06.999Z,960.31
2018-04-26T06:11:06.995Z,960.26
2018-04-26T06:12:06.995Z,960.28
2018-04-26T06:13:07.008Z,960.29
2018-04-26T06:14:07.005Z,960.38
2018-04-26T06:15:07.139Z,960.29
2018-04-26T06:16:06.990Z,960.39
2018-04-26T06:17:07.073Z,960.25
2018-04-26T06:18:06.992Z,960.28
2018-04-26T06:19:06.987Z,960.33
2018-04-26T06:20:06.988Z,960.33
2018-04-26T06:21:06.993Z,960.40
2018-04-26T06:22:06.990Z,960.32
2018-04-26T06:23:06.985Z,960.41
2018-04-26T06:24:06.985Z,960.44
2018-04-26T06:25:07.091Z,960.54
2018-04-26T06:26:06.986Z,960.60
2018-04-26T06:27:06.984Z,960.61
2018-04-26T06:28:06.999Z,960.50
2018-04-26T06:29:06.987Z,960.61
2018-04-26T06:30:06.988Z,960.54
2018-04-26T06:31:07.002Z,960.63
2018-04-26T06:32:06.991Z,960.63
2018-04-26T06:33:06.991Z,960.65
2018-04-26T06:34:06.992Z,960.66
2018-04-26T06:35:06.991Z,960.71
2018-04-26T06:36:06.997Z,960.68
2018-04-26T06:37:06.993Z,960.62
2018-04-26T06:38:06.993Z,960.64
2018-04-26T06:39:06.994Z,960.74
2018-04-26T06:40:06.994Z,960.65
2018-04-26T06:41:06.997Z,960.72
2018-04-26T06:42:06.997Z,960.75
2018-04-26T06:43:06.997Z,960.73
2018-04-26T06:44:07.001Z,960.81
2018-04-26T06:45:06.997Z,960.77
2018-04-26T06:46:06.997Z,960.75
2018-04-26T06:47:06.995Z,960.79
2018-04-26T06:48:07.002Z,960.73
2018-04-26T06:49:06.998Z,960.78
2018-04-26T06:50:07.000Z,960.85
2018-04-26T06:51:06.999Z,960.94
2018-04-26T06:52:06.999Z,961.08
2018-04-26T06:53:07.002Z,961.04
2018-04-26T06:54:07.012Z,961.16
2018-04-26T06:55:07.002Z,960.98
2018-04-26T06:56:07.006Z,961.00
2018-04-26T06:57:07.006Z,961.09
2018-04-26T06:58:07.005Z,961.12
2018-04-26T06:59:07.013Z,960.98
2018-04-26T07:00:07.011Z,961.21
2018-04-26T07:01:07.014Z,961.19
2018-04-26T07:02:07.019Z,961.19
2018-04-26T07:03:07.015Z,961.20
2018-04-26T07:04:07.016Z,961.29
2018-04-26T07:05:07.024Z,961.20
2018-04-26T07:06:07.019Z,961.25
2018-04-26T07:07:07.020Z,961.27
2018-04-26T07:08:07.027Z,961.21
2018-04-26T07:09:07.031Z,961.20
2018-04-26T07:10:07.026Z,961.22
2018-04-26T07:11:07.026Z,961.19
2018-04-26T07:12:07.050Z,961.19
2018-04-26T07:13:07.028Z,961.21
2018-04-26T07:14:07.035Z,961.27
2018-04-26T07:15:07.030Z,961.15
2018-04-26T07:16:07.033Z,961.12
2018-04-26T07:17:07.034Z,961.10
2018-04-26T07:18:07.035Z,961.16
2018-04-26T07:19:07.033Z,961.18
2018-04-26T07:20:07.036Z,961.10
2018-04-26T07:21:07.035Z,961.13
2018-04-26T07:22:07.030Z,961.11
2018-04-26T07:23:07.035Z,961.13
2018-04-26T07:24:07.034Z,961.15
2018-04-26T07:25:07.032Z,961.15
2018-04-26T07:26:07.033Z,961.21
2018-04-26T07:27:07.030Z,961.12
2018-04-26T07:28:07.034Z,961.13
2018-04-26T07:29:07.030Z,961.12
2018-04-26T07:30:07.030Z,961.06
2018-04-26T07:31:07.033Z,961.08
2018-04-26T07:32:07.036Z,961.14
2018-04-26T07:33:07.029Z,961.14
2018-04-26T07:34:07.033Z,961.23
2018-04-26T07:35:07.027Z,961.24
2018-04-26T07:36:07.028Z,961.31
2018-04-26T07:37:07.031Z,961.32
2018-04-26T07:38:07.029Z,961.42
2018-04-26T07:39:07.030Z,961.36
2018-04-26T07:40:07.029Z,961.29
2018-04-26T07:41:07.031Z,961.29
2018-04-26T07:42:07.032Z,961.31
2018-04-26T07:43:07.042Z,961.15
2018-04-26T07:44:07.037Z,961.27
2018-04-26T07:45:07.046Z,961.27
2018-04-26T07:46:07.053Z,961.26
2018-04-26T07:47:07.041Z,961.30
2018-04-26T07:48:07.041Z,961.28
2018-04-26T07:49:07.049Z,961.34
2018-04-26T07:50:07.046Z,961.44
2018-04-26T07:51:07.046Z,961.43
2018-04-26T07:52:07.051Z,961.45
2018-04-26T07:53:07.062Z,961.44
2018-04-26T07:54:07.061Z,961.50
2018-04-26T07:55:07.061Z,961.36
2018-04-26T07:56:07.052Z,961.35
2018-04-26T07:57:07.053Z,961.39
2018-04-26T07:58:07.062Z,961.40
2018-04-26T07:59:07.064Z,961.46
2018-04-26T08:00:07.058Z,961.40
2018-04-26T08:01:07.060Z,961.37
2018-04-26T08:02:07.058Z,961.39
2018-04-26T08:03:07.062Z,961.37
2018-04-26T08:04:07.059Z,961.44
2018-04-26T08:05:07.073Z,961.40
2018-04-26T08:06:07.063Z,961.43
2018-04-26T08:07:07.060Z,961.48
2018-04-26T08:08:07.060Z,961.50
2018-04-26T08:09:07.062Z,961.42
2018-04-26T08:10:07.067Z,961.47
2018-04-26T08:11:07.065Z,961.42
2018-04-26T08:12:07.066Z,961.48
2018-04-26T08:13:07.065Z,961.43
2018-04-26T08:14:07.065Z,961.48
2018-04-26T08:15:07.065Z,961.46
2018-04-26T08:16:07.068Z,961.56
2018-04-26T08:17:07.072Z,961.54
2018-04-26T08:18:07.072Z,961.50
2018-04-26T08:19:07.074Z,961.52
2018-04-26T08:20:07.078Z,961.44
2018-04-26T08:21:07.070Z,961.49
2018-04-26T08:22:07.070Z,961.48
2018-04-26T08:23:07.073Z,961.44
2018-04-26T08:24:07.068Z,961.54
2018-04-26T08:25:07.138Z,961.58
2018-04-26T08:26:07.084Z,961.59
2018-04-26T08:27:07.127Z,961.58
2018-04-26T08:28:07.071Z,961.58
2018-04-26T08:29:07.073Z,961.58
2018-04-26T08:30:07.075Z,961.62
2018-04-26T08:31:07.075Z,961.67
2018-04-26T08:32:07.072Z,961.68
2018-04-26T08:33:07.071Z,961.69
2018-04-26T08:34:07.072Z,961.73
2018-04-26T08:35:07.073Z,961.71
2018-04-26T08:36:07.070Z,961.68
2018-04-26T08:37:07.072Z,961.70
2018-04-26T08:38:07.085Z,961.71
2018-04-26T08:39:07.072Z,961.68
2018-04-26T08:40:07.073Z,961.64
2018-04-26T08:41:07.077Z,961.71
2018-04-26T08:42:07.074Z,961.69
2018-04-26T08:43:07.074Z,961.68
2018-04-26T08:44:07.074Z,961.71
2018-04-26T08:45:07.074Z,961.67
2018-04-26T08:46:07.075Z,961.66
2018-04-26T08:47:07.074Z,961.72
2018-04-26T08:48:07.074Z,961.77
2018-04-26T08:49:07.074Z,961.66
2018-04-26T08:50:07.079Z,961.71
2018-04-26T08:51:07.075Z,961.67
2018-04-26T08:52:07.074Z,961.74
2018-04-26T08:53:07.077Z,961.69
2018-04-26T08:54:07.076Z,961.74
2018-04-26T08:55:07.073Z,961.81
2018-04-26T08:56:07.093Z,961.79
2018-04-26T08:57:07.074Z,961.83
2018-04-26T08:58:07.071Z,961.83
2018-04-26T08:59:07.073Z,961.77
2018-04-26T09:00:07.071Z,961.73
2018-04-26T09:01:07.074Z,961.71
2018-04-26T09:02:07.071Z,961.65
2018-04-26T09:03:07.076Z,961.71
2018-04-26T09:04:07.073Z,961.63
2018-04-26T09:05:07.071Z,961.68
2018-04-26T09:06:07.078Z,961.71
2018-04-26T09:07:07.087Z,961.64
2018-04-26T09:08:07.072Z,961.64
2018-04-26T09:09:07.074Z,961.67
2018-04-26T09:10:07.074Z,961.63
2018-04-26T09:11:07.075Z,961.62
2018-04-26T09:12:07.078Z,961.75
2018-04-26T09:13:07.073Z,961.83
2018-04-26T09:14:07.073Z,961.86
2018-04-26T09:15:07.071Z,961.93
2018-04-26T09:16:07.073Z,961.87
2018-04-26T09:17:07.075Z,961.88
2018-04-26T09:18:07.083Z,961.93
2018-04-26T09:19:07.074Z,961.92
2018-04-26T09:20:07.072Z,961.85
2018-04-26T09:21:07.073Z,962.07
2018-04-26T09:22:07.080Z,961.98
2018-04-26T09:23:07.081Z,962.01
2018-04-26T09:24:07.078Z,961.98
2018-04-26T09:25:07.074Z,962.00
2018-04-26T09:26:07.077Z,961.95
2018-04-26T09:27:07.080Z,961.96
2018-04-26T09:28:07.079Z,961.96
2018-04-26T09:29:07.082Z,961.99
2018-04-26T09:30:07.135Z,962.05
2018-04-26T09:31:07.081Z,962.07
2018-04-26T09:32:07.082Z,962.01
2018-04-26T09:33:07.081Z,962.07
2018-04-26T09:34:07.085Z,961.99
2018-04-26T09:35:07.086Z,962.11
2018-04-26T09:36:07.097Z,962.12
2018-04-26T09:37:07.091Z,962.14
2018-04-26T09:38:07.090Z,962.09
2018-04-26T09:39:07.088Z,962.07
2018-04-26T09:40:07.093Z,962.23
2018-04-26T09:41:07.092Z,962.23
2018-04-26T09:42:07.109Z,962.22
2018-04-26T09:43:07.093Z,962.13
2018-04-26T09:44:07.095Z,962.12
2018-04-26T09:45:07.094Z,962.18
2018-04-26T09:46:07.099Z,962.21
2018-04-26T09:47:07.099Z,962.03
2018-04-26T09:48:07.106Z,962.08
2018-04-26T09:49:07.104Z,962.21
2018-04-26T09:50:07.110Z,962.14
2018-04-26T09:51:07.148Z,962.34
2018-04-26T09:52:07.107Z,962.13
2018-04-26T09:53:07.138Z,962.14
2018-04-26T09:54:07.113Z,962.25
2018-04-26T09:55:07.111Z,962.22
2018-04-26T09:56:07.118Z,962.20
2018-04-26T09:57:07.116Z,962.13
2018-04-26T09:58:07.132Z,962.18
2018-04-26T09:59:07.123Z,962.14
2018-04-26T10:00:07.886Z,962.08
2018-04-26T10:01:07.119Z,962.10
2018-04-26T10:02:07.120Z,962.18
2018-04-26T10:03:07.124Z,962.22
2018-04-26T10:04:07.128Z,962.24
2018-04-26T10:05:07.125Z,962.24
2018-04-26T10:06:07.125Z,962.33
2018-04-26T10:07:07.126Z,962.19
2018-04-26T10:08:07.126Z,962.29
2018-04-26T10:09:07.130Z,962.32
2018-04-26T10:10:07.128Z,962.37
2018-04-26T10:11:07.133Z,962.39
2018-04-26T10:12:07.137Z,962.33
2018-04-26T10:13:07.131Z,962.38
2018-04-26T10:14:07.133Z,962.42
2018-04-26T10:15:07.167Z,962.52
2018-04-26T10:16:07.137Z,962.52
2018-04-26T10:17:07.154Z,962.49
2018-04-26T10:18:07.138Z,962.43
2018-04-26T10:19:07.141Z,962.32
2018-04-26T10:20:07.154Z,962.28
2018-04-26T10:21:07.175Z,962.28
2018-04-26T10:22:07.138Z,962.25
2018-04-26T10:23:07.136Z,962.34
2018-04-26T10:24:07.139Z,962.28
2018-04-26T10:25:07.139Z,962.30
2018-04-26T10:26:07.138Z,962.43
2018-04-26T10:27:07.146Z,962.32
2018-04-26T10:28:07.134Z,962.29
2018-04-26T10:29:07.949Z,962.34
2018-04-26T10:30:07.145Z,962.27
2018-04-26T10:31:07.169Z,962.30
2018-04-26T10:32:07.140Z,962.28
2018-04-26T10:33:07.137Z,962.25
2018-04-26T10:34:07.139Z,962.21
2018-04-26T10:35:07.142Z,962.25
2018-04-26T10:36:07.156Z,962.28
2018-04-26T10:37:07.140Z,962.33
2018-04-26T10:38:07.140Z,962.30
2018-04-26T10:39:07.140Z,962.40
2018-04-26T10:40:07.139Z,962.44
2018-04-26T10:41:07.141Z,962.34
2018-04-26T10:42:07.140Z,962.43
2018-04-26T10:43:07.141Z,962.41
2018-04-26T10:44:07.141Z,962.32
2018-04-26T10:45:07.146Z,962.46
2018-04-26T10:46:07.175Z,962.58
2018-04-26T10:47:07.144Z,962.52
2018-04-26T10:48:07.154Z,962.63
2018-04-26T10:49:07.152Z,962.52
2018-04-26T10:50:07.171Z,962.59
2018-04-26T10:51:07.153Z,962.58
2018-04-26T10:52:07.168Z,962.47
2018-04-26T10:53:07.155Z,962.64
2018-04-26T10:54:07.164Z,962.56
2018-04-26T10:55:07.180Z,962.59
2018-04-26T10:56:07.162Z,962.54
2018-04-26T10:57:07.163Z,962.45
2018-04-26T10:58:07.166Z,962.58
2018-04-26T10:59:07.175Z,962.67
2018-04-26T11:00:07.223Z,962.53
2018-04-26T11:01:07.173Z,962.59
2018-04-26T11:02:07.199Z,962.53
2018-04-26T11:03:07.179Z,962.50
2018-04-26T11:04:07.178Z,962.33
2018-04-26T11:05:07.184Z,962.31
2018-04-26T11:06:07.193Z,962.55
2018-04-26T11:07:07.184Z,962.59
2018-04-26T11:08:07.188Z,962.60
2018-04-26T11:09:07.282Z,962.38
2018-04-26T11:10:07.192Z,962.55
2018-04-26T11:11:07.192Z,962.43
2018-04-26T11:12:07.896Z,962.32
2018-04-26T11:13:07.197Z,962.38
2018-04-26T11:14:07.205Z,962.32
2018-04-26T11:15:07.204Z,962.43
2018-04-26T11:16:07.213Z,962.43
2018-04-26T11:17:07.241Z,962.44
2018-04-26T11:18:07.211Z,962.39
2018-04-26T11:19:07.214Z,962.35
2018-04-26T11:20:07.216Z,962.41
2018-04-26T11:21:07.218Z,962.34
2018-04-26T11:22:07.221Z,962.25
2018-04-26T11:23:07.222Z,962.40
2018-04-26T11:24:07.224Z,962.48
2018-04-26T11:25:07.226Z,962.32
2018-04-26T11:26:07.231Z,962.35
2018-04-26T11:27:07.244Z,962.44
2018-04-26T11:28:07.235Z,962.35
2018-04-26T11:29:07.233Z,962.27
2018-04-26T11:30:07.238Z,962.30
2018-04-26T11:31:07.282Z,962.40
2018-04-26T11:32:07.260Z,962.28
2018-04-26T11:33:07.291Z,962.33
2018-04-26T11:34:07.248Z,962.32
2018-04-26T11:35:07.258Z,962.31
2018-04-26T11:36:07.310Z,962.29
2018-04-26T11:37:07.254Z,962.42
2018-04-26T11:38:07.253Z,962.38
2018-04-26T11:39:07.258Z,962.51
2018-04-26T11:40:07.276Z,962.58
2018-04-26T11:41:07.261Z,962.64
2018-04-26T11:42:07.263Z,962.66
2018-04-26T11:43:07.267Z,962.74
2018-04-26T11:44:07.267Z,962.78
2018-04-26T11:45:07.273Z,962.79
2018-04-26T11:46:07.279Z,962.94
2018-04-26T11:47:07.272Z,962.92
2018-04-26T11:48:07.274Z,962.95
2018-04-26T11:49:07.303Z,963.02
2018-04-26T11:50:07.280Z,963.06
2018-04-26T11:51:07.318Z,963.15
2018-04-26T11:52:07.331Z,963.21
2018-04-26T11:53:07.326Z,963.21
2018-04-26T11:54:07.281Z,963.33
2018-04-26T11:55:07.308Z,963.36
2018-04-26T11:56:07.283Z,963.38
2018-04-26T11:57:07.303Z,963.44
2018-04-26T11:58:07.283Z,963.41
2018-04-26T11:59:07.287Z,963.39
2018-04-26T12:00:07.291Z,963.34
2018-04-26T12:01:07.299Z,963.38
2018-04-26T12:02:07.282Z,963.25
2018-04-26T12:03:07.279Z,963.22
2018-04-26T12:04:07.284Z,963.16
2018-04-26T12:05:07.279Z,963.12
2018-04-26T12:06:07.280Z,963.04
2018-04-26T12:07:07.277Z,963.00
2018-04-26T12:08:07.284Z,962.94
2018-04-26T12:09:07.278Z,962.92
2018-04-26T12:10:07.275Z,962.90
2018-04-26T12:11:07.289Z,962.92
2018-04-26T12:12:07.272Z,962.91
2018-04-26T12:13:07.348Z,962.94
2018-04-26T12:14:07.277Z,962.95
2018-04-26T12:15:07.267Z,962.96
2018-04-26T12:16:07.268Z,962.91
2018-04-26T12:17:07.269Z,962.94
2018-04-26T12:18:07.265Z,962.93
2018-04-26T12:19:07.266Z,962.95
2018-04-26T12:20:07.265Z,962.99
2018-04-26T12:21:07.290Z,963.00
2018-04-26T12:22:07.271Z,962.92
2018-04-26T12:23:07.267Z,962.93
2018-04-26T12:24:07.284Z,962.99
2018-04-26T12:25:07.261Z,962.99
2018-04-26T12:26:07.261Z,963.12
2018-04-26T12:27:07.267Z,963.19
2018-04-26T12:28:07.260Z,963.19
2018-04-26T12:29:07.262Z,963.17
2018-04-26T12:30:07.261Z,963.31
2018-04-26T12:31:07.257Z,963.24
2018-04-26T12:32:07.257Z,963.46
2018-04-26T12:33:07.255Z,963.33
2018-04-26T12:34:07.257Z,963.40
2018-04-26T12:35:07.306Z,963.23
2018-04-26T12:36:07.256Z,963.16
2018-04-26T12:37:07.256Z,963.17
2018-04-26T12:38:07.256Z,963.08
2018-04-26T12:39:07.276Z,963.10
2018-04-26T12:40:07.254Z,963.08
2018-04-26T12:41:07.256Z,962.99
2018-04-26T12:42:07.278Z,963.01
2018-04-26T12:43:07.250Z,962.95
2018-04-26T12:44:07.251Z,962.97
2018-04-26T12:45:07.251Z,962.97
2018-04-26T12:46:07.250Z,962.95
2018-04-26T12:47:07.250Z,962.95
2018-04-26T12:48:07.249Z,962.96
2018-04-26T12:49:07.248Z,962.96
2018-04-26T12:50:07.249Z,962.97
2018-04-26T12:51:07.249Z,962.88
2018-04-26T12:52:07.251Z,962.91
2018-04-26T12:53:07.248Z,962.91
2018-04-26T12:54:07.273Z,962.88
2018-04-26T12:55:07.244Z,962.85
2018-04-26T12:56:07.282Z,962.83
2018-04-26T12:57:07.247Z,962.85
2018-04-26T12:58:07.266Z,962.84
2018-04-26T12:59:07.245Z,962.82
2018-04-26T13:00:07.247Z,962.83
2018-04-26T13:01:07.247Z,962.71
2018-04-26T13:02:07.247Z,962.79
2018-04-26T13:03:07.250Z,962.83
2018-04-26T13:04:07.249Z,962.75
2018-04-26T13:05:07.250Z,962.79
2018-04-26T13:06:07.267Z,962.73
2018-04-26T13:07:07.249Z,962.77
2018-04-26T13:08:07.250Z,962.76
2018-04-26T13:09:07.254Z,962.77
2018-04-26T13:10:07.255Z,962.78
2018-04-26T13:11:07.259Z,962.79
2018-04-26T13:12:07.261Z,962.73
2018-04-26T13:13:07.259Z,962.78
2018-04-26T13:14:07.258Z,962.69
2018-04-26T13:15:07.339Z,962.73
2018-04-26T13:16:07.286Z,962.70
2018-04-26T13:17:07.264Z,962.72
2018-04-26T13:18:07.263Z,962.70
2018-04-26T13:19:07.270Z,962.70
2018-04-26T13:20:07.274Z,962.72
2018-04-26T13:21:07.348Z,962.74
2018-04-26T13:22:07.266Z,962.71
2018-04-26T13:23:07.268Z,962.64
2018-04-26T13:24:07.271Z,962.65
2018-04-26T13:25:07.273Z,962.67
2018-04-26T13:26:07.282Z,962.66
2018-04-26T13:27:07.304Z,962.72
2018-04-26T13:28:07.275Z,962.67
2018-04-26T13:29:07.278Z,962.63
2018-04-26T13:30:07.281Z,962.62
2018-04-26T13:31:07.291Z,962.67
2018-04-26T13:32:07.284Z,962.68
2018-04-26T13:33:07.286Z,962.74
2018-04-26T13:34:07.287Z,962.75
2018-04-26T13:35:07.289Z,962.82
2018-04-26T13:36:07.293Z,962.80
2018-04-26T13:37:07.293Z,962.76
2018-04-26T13:38:07.301Z,962.81
2018-04-26T13:39:07.296Z,962.95
2018-04-26T13:40:07.297Z,963.17
2018-04-26T13:41:07.299Z,963.22
2018-04-26T13:42:07.303Z,963.19
2018-04-26T13:43:07.301Z,963.45
2018-04-26T13:44:07.302Z,963.43
2018-04-26T13:45:07.306Z,963.50
2018-04-26T13:46:07.322Z,963.63
2018-04-26T13:47:07.307Z,963.60
2018-04-26T13:48:07.318Z,963.66
2018-04-26T13:49:07.309Z,963.54
2018-04-26T13:50:07.322Z,963.47
2018-04-26T13:51:07.325Z,963.40
2018-04-26T13:52:07.382Z,963.24
2018-04-26T13:53:07.374Z,963.04
2018-04-26T13:54:07.318Z,963.01
2018-04-26T13:55:07.320Z,962.93
2018-04-26T13:56:07.306Z,962.98
2018-04-26T13:57:07.306Z,962.97
2018-04-26T13:58:07.314Z,963.01
2018-04-26T13:59:07.325Z,962.97
2018-04-26T14:00:07.305Z,962.86
2018-04-26T14:01:07.313Z,962.83
2018-04-26T14:02:07.305Z,962.84
2018-04-26T14:03:07.305Z,962.88
2018-04-26T14:04:07.302Z,962.86
2018-04-26T14:05:07.301Z,962.85
2018-04-26T14:06:07.298Z,962.83
2018-04-26T14:07:07.303Z,962.80
2018-04-26T14:08:07.302Z,962.77
2018-04-26T14:09:07.324Z,962.75
2018-04-26T14:10:07.304Z,962.78
2018-04-26T14:11:07.307Z,962.77
2018-04-26T14:12:07.348Z,962.74
2018-04-26T14:13:07.926Z,962.76
2018-04-26T14:14:07.306Z,962.76
2018-04-26T14:15:07.302Z,962.74
2018-04-26T14:16:07.303Z,962.72
2018-04-26T14:17:07.323Z,962.70
2018-04-26T14:18:07.303Z,962.72
2018-04-26T14:19:07.304Z,962.69
2018-04-26T14:20:07.308Z,962.65
2018-04-26T14:21:07.310Z,962.68
2018-04-26T14:22:07.307Z,962.72
2018-04-26T14:23:07.450Z,962.69
2018-04-26T14:24:07.309Z,962.73
2018-04-26T14:25:07.335Z,962.65
2018-04-26T14:26:07.315Z,962.75
2018-04-26T14:27:07.319Z,962.76
2018-04-26T14:28:07.312Z,962.79
2018-04-26T14:29:07.313Z,962.80
2018-04-26T14:30:07.316Z,962.76
2018-04-26T14:31:07.318Z,962.71
2018-04-26T14:32:07.330Z,962.74
2018-04-26T14:33:07.319Z,962.82
2018-04-26T14:34:07.325Z,962.77
2018-04-26T14:35:07.326Z,962.81
2018-04-26T14:36:07.324Z,962.84
2018-04-26T14:37:07.408Z,962.77
2018-04-26T14:38:07.329Z,962.73
2018-04-26T14:39:07.328Z,962.75
2018-04-26T14:40:07.330Z,962.74
2018-04-26T14:41:07.336Z,962.71
2018-04-26T14:42:07.337Z,962.70
2018-04-26T14:43:07.414Z,962.75
2018-04-26T14:44:07.340Z,962.79
2018-04-26T14:45:07.343Z,962.78
2018-04-26T14:46:07.343Z,962.78
2018-04-26T14:47:07.342Z,962.71
2018-04-26T14:48:07.343Z,962.76
2018-04-26T14:49:07.353Z,962.75
2018-04-26T14:50:07.353Z,962.77
2018-04-26T14:51:07.351Z,962.74
2018-04-26T14:52:07.351Z,962.73
2018-04-26T14:53:07.357Z,962.70
2018-04-26T14:54:07.356Z,962.75
2018-04-26T14:55:07.357Z,962.72
2018-04-26T14:56:07.374Z,962.69
2018-04-26T14:57:07.364Z,962.65
2018-04-26T14:58:07.370Z,962.66
2018-04-26T14:59:07.364Z,962.69
2018-04-26T15:00:07.368Z,962.66
2018-04-26T15:01:07.368Z,962.69
2018-04-26T15:02:07.371Z,962.64
2018-04-26T15:03:07.372Z,962.65
2018-04-26T15:04:07.378Z,962.61
2018-04-26T15:05:07.387Z,962.58
2018-04-26T15:06:07.379Z,962.59
2018-04-26T15:07:07.388Z,962.62
2018-04-26T15:08:07.383Z,962.60
2018-04-26T15:09:07.387Z,962.57
2018-04-26T15:10:07.387Z,962.57
2018-04-26T15:11:07.389Z,962.58
2018-04-26T15:12:07.407Z,962.60
2018-04-26T15:13:07.409Z,962.52
2018-04-26T15:14:07.397Z,962.56
2018-04-26T15:15:07.403Z,962.60
2018-04-26T15:16:07.407Z,962.61
2018-04-26T15:17:07.413Z,962.63
2018-04-26T15:18:07.402Z,962.60
2018-04-26T15:19:07.401Z,962.59
2018-04-26T15:20:07.409Z,962.62
2018-04-26T15:21:07.403Z,962.61
2018-04-26T15:22:07.405Z,962.67
2018-04-26T15:23:07.405Z,962.61
2018-04-26T15:24:07.417Z,962.64
2018-04-26T15:25:07.428Z,962.65
2018-04-26T15:26:07.413Z,962.61
2018-04-26T15:27:07.410Z,962.65
2018-04-26T15:28:07.413Z,962.64
2018-04-26T15:29:07.418Z,962.66
2018-04-26T15:30:07.416Z,962.64
2018-04-26T15:31:07.417Z,962.66
2018-04-26T15:32:07.417Z,962.64
2018-04-26T15:33:07.423Z,962.60
2018-04-26T15:34:07.426Z,962.62
2018-04-26T15:35:07.421Z,962.69
2018-04-26T15:36:07.421Z,962.69
2018-04-26T15:37:07.426Z,962.66
2018-04-26T15:38:07.426Z,962.63
2018-04-26T15:39:07.428Z,962.64
2018-04-26T15:40:07.428Z,962.57
2018-04-26T15:41:07.431Z,962.68
2018-04-26T15:42:07.434Z,962.57
2018-04-26T15:43:07.435Z,962.54
2018-04-26T15:44:07.436Z,962.56
2018-04-26T15:45:07.438Z,962.55
2018-04-26T15:46:07.436Z,962.55
2018-04-26T15:47:07.443Z,962.56
2018-04-26T15:48:07.441Z,962.55
2018-04-26T15:49:07.444Z,962.54
2018-04-26T15:50:07.457Z,962.56
2018-04-26T15:51:07.469Z,962.57
2018-04-26T15:52:07.447Z,962.56
2018-04-26T15:53:07.449Z,962.52
2018-04-26T15:54:07.450Z,962.51